sensor_id;sensor_type;location;lat;lon;timestamp;P1;durP1;ratioP1;P2;durP2;ratioP2
75526;SDS011;64107;49.248;7.006;2023-02-28T00:00:25;2.45;;;1.00;;
75526;SDS011;64107;49.248;7.006;2023-02-28T00:02:52;1.92;;;1.00;;
75526;SDS011;64107;49.248;7.006;2023-02-28T00:05:19;2.85;;;1.05;;
75526;SDS011;64107;49.248;7.006;2023-02-28T00:07:46;2.03;;;0.80;;
75526;SDS011;64107;49.248;7.006;2023-02-28T00:10:14;1.55;;;1.02;;
75526;SDS011;64107;49.248;7.006;2023-02-28T00:12:46;1.67;;;1.30;;
75526;SDS011;64107;49.248;7.006;2023-02-28T00:15:13;1.75;;;1.30;;
75526;SDS011;64107;49.248;7.006;2023-02-28T00:17:39;1.52;;;1.08;;
75526;SDS011;64107;49.248;7.006;2023-02-28T00:20:05;2.70;;;1.42;;
75526;SDS011;64107;49.248;7.006;2023-02-28T00:22:36;2.03;;;1.30;;
75526;SDS011;64107;49.248;7.006;2023-02-28T00:25:04;1.70;;;1.08;;
75526;SDS011;64107;49.248;7.006;2023-02-28T00:27:31;1.75;;;1.08;;
75526;SDS011;64107;49.248;7.006;2023-02-28T00:29:58;1.45;;;1.35;;
75526;SDS011;64107;49.248;7.006;2023-02-28T00:32:24;1.77;;;1.10;;
75526;SDS011;64107;49.248;7.006;2023-02-28T00:34:50;4.18;;;1.55;;
75526;SDS011;64107;49.248;7.006;2023-02-28T00:37:16;2.50;;;1.23;;
75526;SDS011;64107;49.248;7.006;2023-02-28T00:39:43;1.45;;;1.02;;
75526;SDS011;64107;49.248;7.006;2023-02-28T00:42:09;2.55;;;1.20;;
75526;SDS011;64107;49.248;7.006;2023-02-28T00:44:35;1.45;;;1.05;;
75526;SDS011;64107;49.248;7.006;2023-02-28T00:47:01;1.20;;;1.08;;
75526;SDS011;64107;49.248;7.006;2023-02-28T00:49:27;1.55;;;1.08;;
75526;SDS011;64107;49.248;7.006;2023-02-28T00:51:54;3.28;;;1.50;;
75526;SDS011;64107;49.248;7.006;2023-02-28T00:54:20;1.80;;;1.23;;
75526;SDS011;64107;49.248;7.006;2023-02-28T00:56:47;1.77;;;0.90;;
75526;SDS011;64107;49.248;7.006;2023-02-28T00:59:14;1.17;;;0.82;;
75526;SDS011;64107;49.248;7.006;2023-02-28T01:01:41;1.52;;;0.85;;
75526;SDS011;64107;49.248;7.006;2023-02-28T01:04:08;2.88;;;0.95;;
75526;SDS011;64107;49.248;7.006;2023-02-28T01:06:34;1.70;;;1.27;;
75526;SDS011;64107;49.248;7.006;2023-02-28T01:09:01;1.42;;;1.10;;
75526;SDS011;64107;49.248;7.006;2023-02-28T01:11:28;2.00;;;0.98;;
75526;SDS011;64107;49.248;7.006;2023-02-28T01:13:54;1.67;;;1.15;;
75526;SDS011;64107;49.248;7.006;2023-02-28T01:16:20;1.92;;;1.20;;
75526;SDS011;64107;49.248;7.006;2023-02-28T01:18:47;1.35;;;0.85;;
75526;SDS011;64107;49.248;7.006;2023-02-28T01:21:14;3.65;;;0.85;;
75526;SDS011;64107;49.248;7.006;2023-02-28T01:23:42;1.30;;;0.70;;
75526;SDS011;64107;49.248;7.006;2023-02-28T01:28:38;2.75;;;1.20;;
75526;SDS011;64107;49.248;7.006;2023-02-28T01:33:31;1.30;;;1.10;;
75526;SDS011;64107;49.248;7.006;2023-02-28T01:35:59;1.38;;;0.90;;
75526;SDS011;64107;49.248;7.006;2023-02-28T01:38:26;2.55;;;1.23;;
75526;SDS011;64107;49.248;7.006;2023-02-28T01:40:52;1.55;;;1.02;;
75526;SDS011;64107;49.248;7.006;2023-02-28T01:43:23;1.77;;;1.10;;
75526;SDS011;64107;49.248;7.006;2023-02-28T01:45:53;2.15;;;1.10;;
75526;SDS011;64107;49.248;7.006;2023-02-28T01:48:31;0.98;;;0.90;;
75526;SDS011;64107;49.248;7.006;2023-02-28T01:51:01;1.58;;;1.00;;
75526;SDS011;64107;49.248;7.006;2023-02-28T01:53:35;1.15;;;0.98;;
75526;SDS011;64107;49.248;7.006;2023-02-28T01:56:07;1.67;;;1.27;;
75526;SDS011;64107;49.248;7.006;2023-02-28T01:58:34;1.17;;;0.82;;
75526;SDS011;64107;49.248;7.006;2023-02-28T02:01:02;1.27;;;1.13;;
75526;SDS011;64107;49.248;7.006;2023-02-28T02:03:28;2.10;;;1.50;;
75526;SDS011;64107;49.248;7.006;2023-02-28T02:05:55;1.65;;;1.08;;
75526;SDS011;64107;49.248;7.006;2023-02-28T02:08:22;2.22;;;1.40;;
75526;SDS011;64107;49.248;7.006;2023-02-28T02:10:54;3.80;;;1.60;;
75526;SDS011;64107;49.248;7.006;2023-02-28T02:13:41;1.35;;;1.08;;
75526;SDS011;64107;49.248;7.006;2023-02-28T02:16:22;1.90;;;1.50;;
75526;SDS011;64107;49.248;7.006;2023-02-28T02:19:43;1.10;;;0.90;;
75526;SDS011;64107;49.248;7.006;2023-02-28T02:28:22;3.10;;;1.20;;
75526;SDS011;64107;49.248;7.006;2023-02-28T02:34:46;2.55;;;1.60;;
75526;SDS011;64107;49.248;7.006;2023-02-28T02:36:58;2.03;;;1.63;;
75526;SDS011;64107;49.248;7.006;2023-02-28T02:39:45;2.60;;;1.50;;
75526;SDS011;64107;49.248;7.006;2023-02-28T02:42:16;1.60;;;1.30;;
75526;SDS011;64107;49.248;7.006;2023-02-28T02:44:55;2.53;;;2.05;;
75526;SDS011;64107;49.248;7.006;2023-02-28T02:47:26;3.72;;;1.30;;
75526;SDS011;64107;49.248;7.006;2023-02-28T02:49:55;2.03;;;1.25;;
75526;SDS011;64107;49.248;7.006;2023-02-28T02:52:25;2.30;;;1.50;;
75526;SDS011;64107;49.248;7.006;2023-02-28T02:55:05;2.30;;;1.38;;
75526;SDS011;64107;49.248;7.006;2023-02-28T02:57:33;2.70;;;1.45;;
75526;SDS011;64107;49.248;7.006;2023-02-28T03:00:04;2.67;;;1.60;;
75526;SDS011;64107;49.248;7.006;2023-02-28T03:02:33;1.77;;;1.17;;
75526;SDS011;64107;49.248;7.006;2023-02-28T03:05:02;2.10;;;1.75;;
75526;SDS011;64107;49.248;7.006;2023-02-28T03:07:31;2.25;;;1.58;;
75526;SDS011;64107;49.248;7.006;2023-02-28T03:09:57;2.40;;;1.38;;
75526;SDS011;64107;49.248;7.006;2023-02-28T03:12:27;1.30;;;1.20;;
75526;SDS011;64107;49.248;7.006;2023-02-28T03:17:57;1.92;;;1.48;;
75526;SDS011;64107;49.248;7.006;2023-02-28T03:23:13;3.25;;;1.60;;
75526;SDS011;64107;49.248;7.006;2023-02-28T03:26:03;1.75;;;1.45;;
75526;SDS011;64107;49.248;7.006;2023-02-28T03:28:43;2.97;;;2.30;;
75526;SDS011;64107;49.248;7.006;2023-02-28T03:31:30;2.63;;;1.42;;
75526;SDS011;64107;49.248;7.006;2023-02-28T03:34:10;2.00;;;1.40;;
75526;SDS011;64107;49.248;7.006;2023-02-28T03:36:39;2.72;;;1.80;;
75526;SDS011;64107;49.248;7.006;2023-02-28T03:39:11;4.68;;;2.10;;
75526;SDS011;64107;49.248;7.006;2023-02-28T03:44:12;2.13;;;1.92;;
75526;SDS011;64107;49.248;7.006;2023-02-28T03:46:44;2.40;;;1.58;;
75526;SDS011;64107;49.248;7.006;2023-02-28T03:49:37;1.67;;;1.42;;
75526;SDS011;64107;49.248;7.006;2023-02-28T03:52:12;2.80;;;1.65;;
75526;SDS011;64107;49.248;7.006;2023-02-28T03:54:41;3.28;;;2.45;;
75526;SDS011;64107;49.248;7.006;2023-02-28T03:57:27;3.08;;;1.63;;
75526;SDS011;64107;49.248;7.006;2023-02-28T04:00:06;3.88;;;2.40;;
75526;SDS011;64107;49.248;7.006;2023-02-28T04:02:33;3.00;;;1.73;;
75526;SDS011;64107;49.248;7.006;2023-02-28T04:04:59;2.08;;;1.58;;
75526;SDS011;64107;49.248;7.006;2023-02-28T04:07:28;2.75;;;2.15;;
75526;SDS011;64107;49.248;7.006;2023-02-28T04:09:55;4.25;;;2.55;;
75526;SDS011;64107;49.248;7.006;2023-02-28T04:12:21;2.28;;;2.08;;
75526;SDS011;64107;49.248;7.006;2023-02-28T04:14:48;4.32;;;2.75;;
75526;SDS011;64107;49.248;7.006;2023-02-28T04:19:40;2.97;;;1.70;;
75526;SDS011;64107;49.248;7.006;2023-02-28T04:22:07;2.35;;;1.75;;
75526;SDS011;64107;49.248;7.006;2023-02-28T04:24:35;2.92;;;1.63;;
75526;SDS011;64107;49.248;7.006;2023-02-28T04:27:01;3.70;;;2.90;;
75526;SDS011;64107;49.248;7.006;2023-02-28T04:31:55;3.13;;;2.00;;
75526;SDS011;64107;49.248;7.006;2023-02-28T04:34:25;3.78;;;2.63;;
75526;SDS011;64107;49.248;7.006;2023-02-28T04:36:52;3.30;;;2.22;;
75526;SDS011;64107;49.248;7.006;2023-02-28T04:39:23;4.70;;;2.72;;
75526;SDS011;64107;49.248;7.006;2023-02-28T04:41:50;5.47;;;2.97;;
75526;SDS011;64107;49.248;7.006;2023-02-28T04:44:16;4.72;;;2.47;;
75526;SDS011;64107;49.248;7.006;2023-02-28T04:49:12;3.90;;;2.58;;
75526;SDS011;64107;49.248;7.006;2023-02-28T04:51:38;3.03;;;2.25;;
75526;SDS011;64107;49.248;7.006;2023-02-28T04:54:04;7.00;;;2.55;;
75526;SDS011;64107;49.248;7.006;2023-02-28T04:56:31;4.93;;;2.97;;
75526;SDS011;64107;49.248;7.006;2023-02-28T04:58:57;3.08;;;2.40;;
75526;SDS011;64107;49.248;7.006;2023-02-28T05:01:24;3.80;;;2.25;;
75526;SDS011;64107;49.248;7.006;2023-02-28T05:03:52;4.70;;;2.67;;
75526;SDS011;64107;49.248;7.006;2023-02-28T05:06:20;2.72;;;1.60;;
75526;SDS011;64107;49.248;7.006;2023-02-28T05:08:48;4.68;;;2.33;;
75526;SDS011;64107;49.248;7.006;2023-02-28T05:11:18;3.30;;;2.30;;
75526;SDS011;64107;49.248;7.006;2023-02-28T05:13:53;4.13;;;2.88;;
75526;SDS011;64107;49.248;7.006;2023-02-28T05:16:20;3.25;;;2.55;;
75526;SDS011;64107;49.248;7.006;2023-02-28T05:18:46;3.20;;;1.77;;
75526;SDS011;64107;49.248;7.006;2023-02-28T05:21:21;5.75;;;2.88;;
75526;SDS011;64107;49.248;7.006;2023-02-28T05:23:52;5.15;;;3.35;;
75526;SDS011;64107;49.248;7.006;2023-02-28T05:26:19;3.88;;;2.65;;
75526;SDS011;64107;49.248;7.006;2023-02-28T05:28:45;4.22;;;2.25;;
75526;SDS011;64107;49.248;7.006;2023-02-28T05:31:11;9.40;;;3.45;;
75526;SDS011;64107;49.248;7.006;2023-02-28T05:33:38;5.13;;;2.28;;
75526;SDS011;64107;49.248;7.006;2023-02-28T05:38:30;2.70;;;2.38;;
75526;SDS011;64107;49.248;7.006;2023-02-28T05:40:57;2.40;;;1.65;;
75526;SDS011;64107;49.248;7.006;2023-02-28T05:43:23;4.93;;;3.45;;
75526;SDS011;64107;49.248;7.006;2023-02-28T05:45:49;2.05;;;1.83;;
75526;SDS011;64107;49.248;7.006;2023-02-28T05:48:15;4.97;;;3.10;;
75526;SDS011;64107;49.248;7.006;2023-02-28T05:50:42;4.70;;;3.13;;
75526;SDS011;64107;49.248;7.006;2023-02-28T05:53:09;2.53;;;2.28;;
75526;SDS011;64107;49.248;7.006;2023-02-28T05:55:35;2.78;;;1.85;;
75526;SDS011;64107;49.248;7.006;2023-02-28T06:00:28;3.10;;;2.55;;
75526;SDS011;64107;49.248;7.006;2023-02-28T06:02:54;6.28;;;2.92;;
75526;SDS011;64107;49.248;7.006;2023-02-28T06:05:23;5.82;;;3.45;;
75526;SDS011;64107;49.248;7.006;2023-02-28T06:07:49;4.50;;;2.28;;
75526;SDS011;64107;49.248;7.006;2023-02-28T06:10:15;4.45;;;3.50;;
75526;SDS011;64107;49.248;7.006;2023-02-28T06:12:41;3.05;;;2.22;;
75526;SDS011;64107;49.248;7.006;2023-02-28T06:15:16;4.45;;;2.83;;
75526;SDS011;64107;49.248;7.006;2023-02-28T06:17:43;6.43;;;3.30;;
75526;SDS011;64107;49.248;7.006;2023-02-28T06:20:10;4.30;;;2.28;;
75526;SDS011;64107;49.248;7.006;2023-02-28T06:22:37;3.50;;;2.53;;
75526;SDS011;64107;49.248;7.006;2023-02-28T06:25:04;5.22;;;3.05;;
75526;SDS011;64107;49.248;7.006;2023-02-28T06:27:32;2.38;;;1.77;;
75526;SDS011;64107;49.248;7.006;2023-02-28T06:29:58;6.82;;;4.55;;
75526;SDS011;64107;49.248;7.006;2023-02-28T06:32:24;4.25;;;2.75;;
75526;SDS011;64107;49.248;7.006;2023-02-28T06:34:50;5.60;;;2.90;;
75526;SDS011;64107;49.248;7.006;2023-02-28T06:37:17;4.50;;;3.80;;
75526;SDS011;64107;49.248;7.006;2023-02-28T06:39:43;4.68;;;3.28;;
75526;SDS011;64107;49.248;7.006;2023-02-28T06:42:09;4.65;;;3.60;;
75526;SDS011;64107;49.248;7.006;2023-02-28T06:44:36;3.13;;;2.30;;
75526;SDS011;64107;49.248;7.006;2023-02-28T06:47:03;4.05;;;2.25;;
75526;SDS011;64107;49.248;7.006;2023-02-28T06:49:34;5.15;;;3.20;;
75526;SDS011;64107;49.248;7.006;2023-02-28T06:52:00;5.20;;;3.38;;
75526;SDS011;64107;49.248;7.006;2023-02-28T06:54:26;5.55;;;3.53;;
75526;SDS011;64107;49.248;7.006;2023-02-28T06:56:52;4.82;;;2.42;;
75526;SDS011;64107;49.248;7.006;2023-02-28T06:59:21;6.35;;;4.60;;
75526;SDS011;64107;49.248;7.006;2023-02-28T07:01:47;6.85;;;3.17;;
75526;SDS011;64107;49.248;7.006;2023-02-28T07:04:13;6.35;;;3.63;;
75526;SDS011;64107;49.248;7.006;2023-02-28T07:06:39;4.80;;;2.45;;
75526;SDS011;64107;49.248;7.006;2023-02-28T07:09:06;6.47;;;3.35;;
75526;SDS011;64107;49.248;7.006;2023-02-28T07:11:32;4.93;;;3.75;;
75526;SDS011;64107;49.248;7.006;2023-02-28T07:13:58;5.68;;;3.00;;
75526;SDS011;64107;49.248;7.006;2023-02-28T07:16:24;4.95;;;3.85;;
75526;SDS011;64107;49.248;7.006;2023-02-28T07:21:17;4.82;;;3.42;;
75526;SDS011;64107;49.248;7.006;2023-02-28T07:23:43;6.47;;;4.82;;
75526;SDS011;64107;49.248;7.006;2023-02-28T07:26:13;3.40;;;2.53;;
75526;SDS011;64107;49.248;7.006;2023-02-28T07:28:42;6.85;;;4.47;;
75526;SDS011;64107;49.248;7.006;2023-02-28T07:31:09;5.22;;;3.85;;
75526;SDS011;64107;49.248;7.006;2023-02-28T07:33:36;4.82;;;3.67;;
75526;SDS011;64107;49.248;7.006;2023-02-28T07:36:06;5.50;;;3.95;;
75526;SDS011;64107;49.248;7.006;2023-02-28T07:38:36;6.10;;;4.72;;
75526;SDS011;64107;49.248;7.006;2023-02-28T07:41:03;4.78;;;3.75;;
75526;SDS011;64107;49.248;7.006;2023-02-28T07:43:30;7.53;;;3.60;;
75526;SDS011;64107;49.248;7.006;2023-02-28T07:46:00;4.75;;;3.35;;
75526;SDS011;64107;49.248;7.006;2023-02-28T07:48:31;5.93;;;3.22;;
75526;SDS011;64107;49.248;7.006;2023-02-28T07:50:58;4.15;;;2.70;;
75526;SDS011;64107;49.248;7.006;2023-02-28T07:53:24;6.25;;;5.65;;
75526;SDS011;64107;49.248;7.006;2023-02-28T07:55:54;6.72;;;4.03;;
75526;SDS011;64107;49.248;7.006;2023-02-28T07:58:21;3.25;;;2.47;;
75526;SDS011;64107;49.248;7.006;2023-02-28T08:00:47;6.05;;;3.15;;
75526;SDS011;64107;49.248;7.006;2023-02-28T08:03:13;5.25;;;3.75;;
75526;SDS011;64107;49.248;7.006;2023-02-28T08:05:39;4.40;;;2.58;;
75526;SDS011;64107;49.248;7.006;2023-02-28T08:10:32;3.42;;;2.35;;
75526;SDS011;64107;49.248;7.006;2023-02-28T08:12:59;5.05;;;2.95;;
75526;SDS011;64107;49.248;7.006;2023-02-28T08:15:25;5.10;;;4.35;;
75526;SDS011;64107;49.248;7.006;2023-02-28T08:17:51;6.20;;;3.30;;
75526;SDS011;64107;49.248;7.006;2023-02-28T08:20:17;7.93;;;5.07;;
75526;SDS011;64107;49.248;7.006;2023-02-28T08:22:44;3.47;;;2.83;;
75526;SDS011;64107;49.248;7.006;2023-02-28T08:25:10;6.38;;;5.55;;
75526;SDS011;64107;49.248;7.006;2023-02-28T08:27:36;4.05;;;3.15;;
75526;SDS011;64107;49.248;7.006;2023-02-28T08:30:03;5.47;;;4.22;;
75526;SDS011;64107;49.248;7.006;2023-02-28T08:32:29;4.65;;;3.45;;
75526;SDS011;64107;49.248;7.006;2023-02-28T08:34:56;3.50;;;2.88;;
75526;SDS011;64107;49.248;7.006;2023-02-28T08:37:22;6.53;;;3.90;;
75526;SDS011;64107;49.248;7.006;2023-02-28T08:39:49;5.20;;;4.30;;
75526;SDS011;64107;49.248;7.006;2023-02-28T08:42:15;6.40;;;4.60;;
75526;SDS011;64107;49.248;7.006;2023-02-28T08:44:41;1.45;;;1.23;;
75526;SDS011;64107;49.248;7.006;2023-02-28T08:47:07;2.97;;;2.33;;
75526;SDS011;64107;49.248;7.006;2023-02-28T08:49:33;3.65;;;2.92;;
75526;SDS011;64107;49.248;7.006;2023-02-28T08:51:59;4.25;;;3.38;;
75526;SDS011;64107;49.248;7.006;2023-02-28T08:54:25;5.63;;;4.78;;
75526;SDS011;64107;49.248;7.006;2023-02-28T08:56:53;6.10;;;4.25;;
75526;SDS011;64107;49.248;7.006;2023-02-28T08:59:19;4.82;;;3.85;;
75526;SDS011;64107;49.248;7.006;2023-02-28T09:01:45;5.57;;;4.20;;
75526;SDS011;64107;49.248;7.006;2023-02-28T09:04:12;3.88;;;3.35;;
75526;SDS011;64107;49.248;7.006;2023-02-28T09:06:38;5.05;;;3.55;;
75526;SDS011;64107;49.248;7.006;2023-02-28T09:09:04;4.93;;;2.75;;
75526;SDS011;64107;49.248;7.006;2023-02-28T09:11:32;3.95;;;3.22;;
75526;SDS011;64107;49.248;7.006;2023-02-28T09:13:59;5.65;;;3.33;;
75526;SDS011;64107;49.248;7.006;2023-02-28T09:18:52;4.65;;;3.75;;
75526;SDS011;64107;49.248;7.006;2023-02-28T09:21:18;3.10;;;2.10;;
75526;SDS011;64107;49.248;7.006;2023-02-28T09:23:46;2.78;;;2.08;;
75526;SDS011;64107;49.248;7.006;2023-02-28T09:26:23;4.07;;;3.50;;
75526;SDS011;64107;49.248;7.006;2023-02-28T09:28:50;4.38;;;2.70;;
75526;SDS011;64107;49.248;7.006;2023-02-28T09:31:18;3.78;;;3.03;;
75526;SDS011;64107;49.248;7.006;2023-02-28T09:33:50;5.55;;;3.25;;
75526;SDS011;64107;49.248;7.006;2023-02-28T09:36:17;4.70;;;3.45;;
75526;SDS011;64107;49.248;7.006;2023-02-28T09:38:45;3.55;;;3.20;;
75526;SDS011;64107;49.248;7.006;2023-02-28T09:41:17;7.88;;;3.22;;
75526;SDS011;64107;49.248;7.006;2023-02-28T09:43:47;4.60;;;2.97;;
75526;SDS011;64107;49.248;7.006;2023-02-28T09:46:27;5.95;;;4.60;;
75526;SDS011;64107;49.248;7.006;2023-02-28T09:48:56;5.32;;;3.03;;
75526;SDS011;64107;49.248;7.006;2023-02-28T09:54:09;6.63;;;2.97;;
75526;SDS011;64107;49.248;7.006;2023-02-28T09:56:43;5.90;;;4.50;;
75526;SDS011;64107;49.248;7.006;2023-02-28T10:05:11;4.63;;;3.33;;
75526;SDS011;64107;49.248;7.006;2023-02-28T10:10:39;3.90;;;2.17;;
75526;SDS011;64107;49.248;7.006;2023-02-28T10:15:47;5.35;;;4.43;;
75526;SDS011;64107;49.248;7.006;2023-02-28T10:18:21;5.47;;;3.28;;
75526;SDS011;64107;49.248;7.006;2023-02-28T10:20:50;6.57;;;3.95;;
75526;SDS011;64107;49.248;7.006;2023-02-28T10:23:34;3.92;;;3.03;;
75526;SDS011;64107;49.248;7.006;2023-02-28T10:26:04;4.47;;;2.58;;
75526;SDS011;64107;49.248;7.006;2023-02-28T10:28:38;6.00;;;3.80;;
75526;SDS011;64107;49.248;7.006;2023-02-28T10:31:04;5.05;;;3.30;;
75526;SDS011;64107;49.248;7.006;2023-02-28T10:33:32;4.45;;;3.63;;
75526;SDS011;64107;49.248;7.006;2023-02-28T10:35:59;5.40;;;4.63;;
75526;SDS011;64107;49.248;7.006;2023-02-28T10:38:28;5.22;;;3.53;;
75526;SDS011;64107;49.248;7.006;2023-02-28T10:41:15;7.97;;;4.68;;
75526;SDS011;64107;49.248;7.006;2023-02-28T10:43:43;3.55;;;2.47;;
75526;SDS011;64107;49.248;7.006;2023-02-28T10:48:38;4.93;;;3.65;;
75526;SDS011;64107;49.248;7.006;2023-02-28T10:51:16;6.85;;;4.55;;
75526;SDS011;64107;49.248;7.006;2023-02-28T10:56:18;7.03;;;3.67;;
75526;SDS011;64107;49.248;7.006;2023-02-28T11:01:14;6.82;;;5.15;;
75526;SDS011;64107;49.248;7.006;2023-02-28T11:03:44;5.95;;;4.88;;
75526;SDS011;64107;49.248;7.006;2023-02-28T11:06:13;4.15;;;2.88;;
75526;SDS011;64107;49.248;7.006;2023-02-28T11:08:55;3.42;;;3.00;;
75526;SDS011;64107;49.248;7.006;2023-02-28T11:11:46;8.80;;;3.95;;
75526;SDS011;64107;49.248;7.006;2023-02-28T11:14:31;4.82;;;3.72;;
75526;SDS011;64107;49.248;7.006;2023-02-28T11:17:02;5.75;;;3.70;;
75526;SDS011;64107;49.248;7.006;2023-02-28T11:19:50;5.40;;;3.70;;
75526;SDS011;64107;49.248;7.006;2023-02-28T11:22:19;6.45;;;5.25;;
75526;SDS011;64107;49.248;7.006;2023-02-28T11:24:48;4.95;;;3.72;;
75526;SDS011;64107;49.248;7.006;2023-02-28T11:29:59;5.40;;;4.90;;
75526;SDS011;64107;49.248;7.006;2023-02-28T11:32:25;4.45;;;3.60;;
75526;SDS011;64107;49.248;7.006;2023-02-28T11:37:35;7.03;;;5.10;;
75526;SDS011;64107;49.248;7.006;2023-02-28T11:40:02;8.48;;;4.95;;
75526;SDS011;64107;49.248;7.006;2023-02-28T11:42:44;4.38;;;3.67;;
75526;SDS011;64107;49.248;7.006;2023-02-28T11:48:22;5.53;;;4.13;;
75526;SDS011;64107;49.248;7.006;2023-02-28T11:51:13;6.00;;;4.82;;
75526;SDS011;64107;49.248;7.006;2023-02-28T11:56:46;6.93;;;4.00;;
75526;SDS011;64107;49.248;7.006;2023-02-28T12:07:31;6.43;;;4.80;;
75526;SDS011;64107;49.248;7.006;2023-02-28T12:18:26;5.03;;;3.40;;
75526;SDS011;64107;49.248;7.006;2023-02-28T12:23:58;5.85;;;4.07;;
75526;SDS011;64107;49.248;7.006;2023-02-28T12:34:41;5.18;;;3.25;;
75526;SDS011;64107;49.248;7.006;2023-02-28T12:37:11;5.25;;;3.10;;
75526;SDS011;64107;49.248;7.006;2023-02-28T12:39:41;4.95;;;3.65;;
75526;SDS011;64107;49.248;7.006;2023-02-28T12:42:11;7.07;;;5.10;;
75526;SDS011;64107;49.248;7.006;2023-02-28T12:44:49;7.38;;;3.90;;
75526;SDS011;64107;49.248;7.006;2023-02-28T12:47:18;7.72;;;4.90;;
75526;SDS011;64107;49.248;7.006;2023-02-28T12:49:58;6.25;;;5.13;;
75526;SDS011;64107;49.248;7.006;2023-02-28T13:01:02;4.25;;;3.45;;
75526;SDS011;64107;49.248;7.006;2023-02-28T13:08:59;7.55;;;6.15;;
75526;SDS011;64107;49.248;7.006;2023-02-28T13:11:33;7.68;;;4.68;;
75526;SDS011;64107;49.248;7.006;2023-02-28T13:14:05;8.52;;;4.70;;
75526;SDS011;64107;49.248;7.006;2023-02-28T13:19:19;6.50;;;4.15;;
75526;SDS011;64107;49.248;7.006;2023-02-28T13:21:48;7.72;;;6.13;;
75526;SDS011;64107;49.248;7.006;2023-02-28T13:29:28;7.57;;;4.90;;
75526;SDS011;64107;49.248;7.006;2023-02-28T13:39:49;7.22;;;4.85;;
75526;SDS011;64107;49.248;7.006;2023-02-28T14:06:23;5.53;;;4.30;;
75526;SDS011;64107;49.248;7.006;2023-02-28T14:11:45;6.57;;;5.22;;
75526;SDS011;64107;49.248;7.006;2023-02-28T14:16:59;7.22;;;5.47;;
75526;SDS011;64107;49.248;7.006;2023-02-28T14:19:34;7.97;;;5.63;;
75526;SDS011;64107;49.248;7.006;2023-02-28T14:34:29;8.52;;;4.20;;
75526;SDS011;64107;49.248;7.006;2023-02-28T14:36:27;7.43;;;4.43;;
75526;SDS011;64107;49.248;7.006;2023-02-28T14:39:11;7.43;;;4.78;;
75526;SDS011;64107;49.248;7.006;2023-02-28T14:41:44;7.80;;;5.38;;
75526;SDS011;64107;49.248;7.006;2023-02-28T14:44:21;5.45;;;3.97;;
75526;SDS011;64107;49.248;7.006;2023-02-28T14:49:26;6.63;;;5.38;;
75526;SDS011;64107;49.248;7.006;2023-02-28T14:52:01;6.50;;;4.53;;
75526;SDS011;64107;49.248;7.006;2023-02-28T14:54:34;8.95;;;5.63;;
75526;SDS011;64107;49.248;7.006;2023-02-28T14:57:03;9.65;;;5.55;;
75526;SDS011;64107;49.248;7.006;2023-02-28T14:59:31;7.15;;;5.28;;
75526;SDS011;64107;49.248;7.006;2023-02-28T15:04:55;7.28;;;5.15;;
75526;SDS011;64107;49.248;7.006;2023-02-28T15:07:23;6.78;;;4.82;;
75526;SDS011;64107;49.248;7.006;2023-02-28T15:12:59;6.85;;;4.43;;
75526;SDS011;64107;49.248;7.006;2023-02-28T15:18:39;9.30;;;5.50;;
75526;SDS011;64107;49.248;7.006;2023-02-28T15:21:13;8.40;;;6.00;;
75526;SDS011;64107;49.248;7.006;2023-02-28T15:23:43;9.15;;;5.30;;
75526;SDS011;64107;49.248;7.006;2023-02-28T15:26:20;7.05;;;5.28;;
75526;SDS011;64107;49.248;7.006;2023-02-28T15:28:49;6.25;;;4.95;;
75526;SDS011;64107;49.248;7.006;2023-02-28T15:31:26;7.05;;;5.00;;
75526;SDS011;64107;49.248;7.006;2023-02-28T15:33:57;6.40;;;5.00;;
75526;SDS011;64107;49.248;7.006;2023-02-28T15:36:29;8.05;;;4.72;;
75526;SDS011;64107;49.248;7.006;2023-02-28T15:38:58;8.13;;;4.97;;
75526;SDS011;64107;49.248;7.006;2023-02-28T15:41:25;6.18;;;4.68;;
75526;SDS011;64107;49.248;7.006;2023-02-28T15:46:40;6.93;;;4.65;;
75526;SDS011;64107;49.248;7.006;2023-02-28T15:49:17;7.55;;;6.85;;
75526;SDS011;64107;49.248;7.006;2023-02-28T15:51:45;6.15;;;4.97;;
75526;SDS011;64107;49.248;7.006;2023-02-28T15:54:15;8.70;;;6.05;;
75526;SDS011;64107;49.248;7.006;2023-02-28T15:56:50;9.55;;;6.78;;
75526;SDS011;64107;49.248;7.006;2023-02-28T15:59:18;7.88;;;5.53;;
75526;SDS011;64107;49.248;7.006;2023-02-28T16:04:34;7.53;;;5.00;;
75526;SDS011;64107;49.248;7.006;2023-02-28T16:07:02;10.88;;;5.90;;
75526;SDS011;64107;49.248;7.006;2023-02-28T16:09:29;8.48;;;4.95;;
75526;SDS011;64107;49.248;7.006;2023-02-28T16:11:56;6.47;;;5.60;;
75526;SDS011;64107;49.248;7.006;2023-02-28T16:14:26;6.72;;;4.15;;
75526;SDS011;64107;49.248;7.006;2023-02-28T16:16:55;6.97;;;5.65;;
75526;SDS011;64107;49.248;7.006;2023-02-28T16:19:22;8.48;;;5.30;;
75526;SDS011;64107;49.248;7.006;2023-02-28T16:21:48;17.13;;;9.45;;
75526;SDS011;64107;49.248;7.006;2023-02-28T16:26:41;8.30;;;4.50;;
75526;SDS011;64107;49.248;7.006;2023-02-28T16:29:12;8.45;;;4.80;;
75526;SDS011;64107;49.248;7.006;2023-02-28T16:31:49;6.10;;;3.60;;
75526;SDS011;64107;49.248;7.006;2023-02-28T16:36:41;10.48;;;7.57;;
75526;SDS011;64107;49.248;7.006;2023-02-28T16:39:07;7.10;;;4.75;;
75526;SDS011;64107;49.248;7.006;2023-02-28T16:43:59;6.82;;;4.97;;
75526;SDS011;64107;49.248;7.006;2023-02-28T16:46:33;8.05;;;4.07;;
75526;SDS011;64107;49.248;7.006;2023-02-28T16:49:00;9.02;;;5.32;;
75526;SDS011;64107;49.248;7.006;2023-02-28T16:51:26;7.40;;;3.20;;
75526;SDS011;64107;49.248;7.006;2023-02-28T16:53:52;7.60;;;5.25;;
75526;SDS011;64107;49.248;7.006;2023-02-28T16:56:19;8.02;;;4.90;;
75526;SDS011;64107;49.248;7.006;2023-02-28T16:58:47;8.38;;;6.43;;
75526;SDS011;64107;49.248;7.006;2023-02-28T17:01:14;10.05;;;6.13;;
75526;SDS011;64107;49.248;7.006;2023-02-28T17:03:41;9.10;;;5.10;;
75526;SDS011;64107;49.248;7.006;2023-02-28T17:06:20;6.80;;;4.80;;
75526;SDS011;64107;49.248;7.006;2023-02-28T17:08:52;9.65;;;4.43;;
75526;SDS011;64107;49.248;7.006;2023-02-28T17:11:19;8.10;;;5.22;;
75526;SDS011;64107;49.248;7.006;2023-02-28T17:13:45;10.85;;;4.80;;
75526;SDS011;64107;49.248;7.006;2023-02-28T17:16:23;11.57;;;5.53;;
75526;SDS011;64107;49.248;7.006;2023-02-28T17:18:53;7.72;;;4.40;;
75526;SDS011;64107;49.248;7.006;2023-02-28T17:21:21;7.20;;;4.35;;
75526;SDS011;64107;49.248;7.006;2023-02-28T17:23:48;8.02;;;5.30;;
75526;SDS011;64107;49.248;7.006;2023-02-28T17:26:14;8.50;;;5.32;;
75526;SDS011;64107;49.248;7.006;2023-02-28T17:28:45;7.00;;;4.95;;
75526;SDS011;64107;49.248;7.006;2023-02-28T17:31:12;10.60;;;5.97;;
75526;SDS011;64107;49.248;7.006;2023-02-28T17:33:38;8.68;;;6.10;;
75526;SDS011;64107;49.248;7.006;2023-02-28T17:36:04;9.85;;;5.93;;
75526;SDS011;64107;49.248;7.006;2023-02-28T17:38:31;7.18;;;4.63;;
75526;SDS011;64107;49.248;7.006;2023-02-28T17:40:57;9.30;;;4.28;;
75526;SDS011;64107;49.248;7.006;2023-02-28T17:43:24;8.65;;;4.55;;
75526;SDS011;64107;49.248;7.006;2023-02-28T17:45:51;6.65;;;5.50;;
75526;SDS011;64107;49.248;7.006;2023-02-28T17:48:17;7.35;;;4.70;;
75526;SDS011;64107;49.248;7.006;2023-02-28T17:50:43;10.20;;;6.20;;
75526;SDS011;64107;49.248;7.006;2023-02-28T17:53:09;6.43;;;3.97;;
75526;SDS011;64107;49.248;7.006;2023-02-28T17:55:35;6.90;;;3.67;;
75526;SDS011;64107;49.248;7.006;2023-02-28T17:58:02;8.77;;;5.32;;
75526;SDS011;64107;49.248;7.006;2023-02-28T18:00:28;7.00;;;4.45;;
75526;SDS011;64107;49.248;7.006;2023-02-28T18:02:54;9.10;;;5.70;;
75526;SDS011;64107;49.248;7.006;2023-02-28T18:05:21;9.35;;;4.72;;
75526;SDS011;64107;49.248;7.006;2023-02-28T18:07:47;8.25;;;4.57;;
75526;SDS011;64107;49.248;7.006;2023-02-28T18:10:15;6.90;;;5.00;;
75526;SDS011;64107;49.248;7.006;2023-02-28T18:12:44;9.57;;;4.50;;
75526;SDS011;64107;49.248;7.006;2023-02-28T18:15:15;8.15;;;3.58;;
75526;SDS011;64107;49.248;7.006;2023-02-28T18:17:42;8.57;;;4.60;;
75526;SDS011;64107;49.248;7.006;2023-02-28T18:20:09;10.48;;;4.93;;